sensor_id;sensor_type;location;lat;lon;timestamp;temperature;humidity
39899;DHT22;25571;47.876;10.642;2023-04-03T00:01:06;3.90;99.90
39899;DHT22;25571;47.876;10.642;2023-04-03T00:03:31;3.90;99.90
39899;DHT22;25571;47.876;10.642;2023-04-03T00:05:57;3.90;99.90
39899;DHT22;25571;47.876;10.642;2023-04-03T00:08:23;3.80;99.90
39899;DHT22;25571;47.876;10.642;2023-04-03T00:10:49;3.90;99.90
39899;DHT22;25571;47.876;10.642;2023-04-03T00:13:14;3.70;99.90
39899;DHT22;25571;47.876;10.642;2023-04-03T00:15:41;3.90;99.90
39899;DHT22;25571;47.876;10.642;2023-04-03T00:18:07;3.80;99.90
39899;DHT22;25571;47.876;10.642;2023-04-03T00:20:33;3.80;99.90
39899;DHT22;25571;47.876;10.642;2023-04-03T00:22:59;3.80;99.90
39899;DHT22;25571;47.876;10.642;2023-04-03T00:25:25;3.70;99.90
39899;DHT22;25571;47.876;10.642;2023-04-03T00:27:51;3.70;99.90
39899;DHT22;25571;47.876;10.642;2023-04-03T00:30:19;3.80;99.90
39899;DHT22;25571;47.876;10.642;2023-04-03T00:32:46;3.70;99.90
39899;DHT22;25571;47.876;10.642;2023-04-03T00:35:12;3.80;99.90
39899;DHT22;25571;47.876;10.642;2023-04-03T00:37:41;3.80;99.90
39899;DHT22;25571;47.876;10.642;2023-04-03T00:40:08;3.90;99.90
39899;DHT22;25571;47.876;10.642;2023-04-03T00:42:33;3.90;99.90
39899;DHT22;25571;47.876;10.642;2023-04-03T00:47:27;3.90;99.90
39899;DHT22;25571;47.876;10.642;2023-04-03T00:49:53;3.90;99.90
39899;DHT22;25571;47.876;10.642;2023-04-03T00:52:21;3.80;99.90
39899;DHT22;25571;47.876;10.642;2023-04-03T00:54:49;3.80;99.90
39899;DHT22;25571;47.876;10.642;2023-04-03T00:57:17;3.80;99.90
39899;DHT22;25571;47.876;10.642;2023-04-03T00:59:48;3.80;99.90
39899;DHT22;25571;47.876;10.642;2023-04-03T01:02:15;3.90;99.90
39899;DHT22;25571;47.876;10.642;2023-04-03T01:04:42;3.80;99.90
39899;DHT22;25571;47.876;10.642;2023-04-03T01:07:12;3.70;99.90
39899;DHT22;25571;47.876;10.642;2023-04-03T01:09:40;3.80;99.90
39899;DHT22;25571;47.876;10.642;2023-04-03T01:12:33;3.60;99.90
39899;DHT22;25571;47.876;10.642;2023-04-03T01:15:03;3.60;99.90
39899;DHT22;25571;47.876;10.642;2023-04-03T01:17:35;3.60;99.90
39899;DHT22;25571;47.876;10.642;2023-04-03T01:25:27;3.50;99.90
39899;DHT22;25571;47.876;10.642;2023-04-03T01:27:52;3.50;99.90
39899;DHT22;25571;47.876;10.642;2023-04-03T01:30:20;3.50;99.90
39899;DHT22;25571;47.876;10.642;2023-04-03T01:32:46;3.60;99.90
39899;DHT22;25571;47.876;10.642;2023-04-03T01:35:12;3.50;99.90
39899;DHT22;25571;47.876;10.642;2023-04-03T01:37:37;3.60;99.90
39899;DHT22;25571;47.876;10.642;2023-04-03T01:40:03;3.60;99.90
39899;DHT22;25571;47.876;10.642;2023-04-03T01:42:29;3.60;99.90
39899;DHT22;25571;47.876;10.642;2023-04-03T01:44:55;3.60;99.90
39899;DHT22;25571;47.876;10.642;2023-04-03T01:47:21;3.70;99.90
39899;DHT22;25571;47.876;10.642;2023-04-03T01:49:46;3.60;99.90
39899;DHT22;25571;47.876;10.642;2023-04-03T01:52:12;3.60;99.90
39899;DHT22;25571;47.876;10.642;2023-04-03T01:54:38;3.70;99.90
39899;DHT22;25571;47.876;10.642;2023-04-03T01:57:03;3.70;99.90
39899;DHT22;25571;47.876;10.642;2023-04-03T01:59:29;3.70;99.90
39899;DHT22;25571;47.876;10.642;2023-04-03T02:01:54;3.70;99.90
39899;DHT22;25571;47.876;10.642;2023-04-03T02:04:20;3.60;99.90
39899;DHT22;25571;47.876;10.642;2023-04-03T02:06:46;3.50;99.90
39899;DHT22;25571;47.876;10.642;2023-04-03T02:09:12;3.60;99.90
39899;DHT22;25571;47.876;10.642;2023-04-03T02:11:37;3.50;99.90
39899;DHT22;25571;47.876;10.642;2023-04-03T02:14:03;3.50;99.90
39899;DHT22;25571;47.876;10.642;2023-04-03T02:16:28;3.50;99.90
39899;DHT22;25571;47.876;10.642;2023-04-03T02:18:54;3.60;99.90
39899;DHT22;25571;47.876;10.642;2023-04-03T02:21:20;3.60;99.90
39899;DHT22;25571;47.876;10.642;2023-04-03T02:23:45;3.60;99.90
39899;DHT22;25571;47.876;10.642;2023-04-03T02:26:13;3.60;99.90
39899;DHT22;25571;47.876;10.642;2023-04-03T02:28:39;3.60;99.90
39899;DHT22;25571;47.876;10.642;2023-04-03T02:31:05;3.60;99.90
39899;DHT22;25571;47.876;10.642;2023-04-03T02:33:32;3.60;99.90
39899;DHT22;25571;47.876;10.642;2023-04-03T02:35:58;3.60;99.90
39899;DHT22;25571;47.876;10.642;2023-04-03T02:38:25;3.60;99.90
39899;DHT22;25571;47.876;10.642;2023-04-03T02:40:51;3.60;99.90
39899;DHT22;25571;47.876;10.642;2023-04-03T02:43:17;3.50;99.90
39899;DHT22;25571;47.876;10.642;2023-04-03T02:45:43;3.50;99.90
39899;DHT22;25571;47.876;10.642;2023-04-03T02:48:08;3.40;99.90
39899;DHT22;25571;47.876;10.642;2023-04-03T02:50:34;3.40;99.90
39899;DHT22;25571;47.876;10.642;2023-04-03T02:53:00;3.40;99.90
39899;DHT22;25571;47.876;10.642;2023-04-03T02:55:25;3.40;99.90
39899;DHT22;25571;47.876;10.642;2023-04-03T02:57:51;3.30;99.90
39899;DHT22;25571;47.876;10.642;2023-04-03T03:00:17;3.30;99.90
39899;DHT22;25571;47.876;10.642;2023-04-03T03:02:42;3.20;99.90
39899;DHT22;25571;47.876;10.642;2023-04-03T03:05:08;3.20;99.90
39899;DHT22;25571;47.876;10.642;2023-04-03T03:07:34;3.10;99.90
39899;DHT22;25571;47.876;10.642;2023-04-03T03:09:59;3.10;99.90
39899;DHT22;25571;47.876;10.642;2023-04-03T03:12:25;3.00;99.90
39899;DHT22;25571;47.876;10.642;2023-04-03T03:14:51;3.10;99.90
39899;DHT22;25571;47.876;10.642;2023-04-03T03:17:16;3.20;99.90
39899;DHT22;25571;47.876;10.642;2023-04-03T03:19:43;3.30;99.90
39899;DHT22;25571;47.876;10.642;2023-04-03T03:22:09;3.30;99.90
39899;DHT22;25571;47.876;10.642;2023-04-03T03:24:34;3.20;99.90
39899;DHT22;25571;47.876;10.642;2023-04-03T03:27:00;3.20;99.90
39899;DHT22;25571;47.876;10.642;2023-04-03T03:29:25;3.30;99.90
39899;DHT22;25571;47.876;10.642;2023-04-03T03:31:51;3.20;99.90
39899;DHT22;25571;47.876;10.642;2023-04-03T03:34:16;3.30;99.90
39899;DHT22;25571;47.876;10.642;2023-04-03T03:36:42;3.30;99.90
39899;DHT22;25571;47.876;10.642;2023-04-03T03:39:08;3.20;99.90
39899;DHT22;25571;47.876;10.642;2023-04-03T03:41:33;3.40;99.90
39899;DHT22;25571;47.876;10.642;2023-04-03T03:43:59;3.40;99.90
39899;DHT22;25571;47.876;10.642;2023-04-03T03:46:24;3.30;99.90
39899;DHT22;25571;47.876;10.642;2023-04-03T03:48:50;3.30;99.90
39899;DHT22;25571;47.876;10.642;2023-04-03T03:51:16;3.30;99.90
39899;DHT22;25571;47.876;10.642;2023-04-03T03:53:41;3.30;99.90
39899;DHT22;25571;47.876;10.642;2023-04-03T03:56:07;3.30;99.90
39899;DHT22;25571;47.876;10.642;2023-04-03T03:58:33;3.40;99.90
39899;DHT22;25571;47.876;10.642;2023-04-03T04:01:04;3.30;99.90
39899;DHT22;25571;47.876;10.642;2023-04-03T04:03:30;3.30;99.90
39899;DHT22;25571;47.876;10.642;2023-04-03T04:05:56;3.20;99.90
39899;DHT22;25571;47.876;10.642;2023-04-03T04:08:22;3.20;99.90
39899;DHT22;25571;47.876;10.642;2023-04-03T04:10:48;3.20;99.90
39899;DHT22;25571;47.876;10.642;2023-04-03T04:13:13;3.20;99.90
39899;DHT22;25571;47.876;10.642;2023-04-03T04:15:39;3.20;99.90
39899;DHT22;25571;47.876;10.642;2023-04-03T04:18:05;3.20;99.90
39899;DHT22;25571;47.876;10.642;2023-04-03T04:20:31;3.20;99.90
39899;DHT22;25571;47.876;10.642;2023-04-03T04:22:56;3.30;99.90
39899;DHT22;25571;47.876;10.642;2023-04-03T04:25:22;3.30;99.90
39899;DHT22;25571;47.876;10.642;2023-04-03T04:27:47;3.40;99.90
39899;DHT22;25571;47.876;10.642;2023-04-03T04:30:13;3.30;99.90
39899;DHT22;25571;47.876;10.642;2023-04-03T04:32:39;3.40;99.90
39899;DHT22;25571;47.876;10.642;2023-04-03T04:35:05;3.40;99.90
39899;DHT22;25571;47.876;10.642;2023-04-03T04:37:31;3.40;99.90
39899;DHT22;25571;47.876;10.642;2023-04-03T04:39:56;3.30;99.90
39899;DHT22;25571;47.876;10.642;2023-04-03T04:42:22;3.30;99.90
39899;DHT22;25571;47.876;10.642;2023-04-03T04:44:47;3.30;99.90
39899;DHT22;25571;47.876;10.642;2023-04-03T04:47:13;3.40;99.90
39899;DHT22;25571;47.876;10.642;2023-04-03T04:49:39;3.40;99.90
39899;DHT22;25571;47.876;10.642;2023-04-03T04:52:04;3.30;99.90
39899;DHT22;25571;47.876;10.642;2023-04-03T04:54:30;3.40;99.90
39899;DHT22;25571;47.876;10.642;2023-04-03T04:56:56;3.40;99.90
39899;DHT22;25571;47.876;10.642;2023-04-03T04:59:21;3.40;99.90
39899;DHT22;25571;47.876;10.642;2023-04-03T05:01:47;3.30;99.90
39899;DHT22;25571;47.876;10.642;2023-04-03T05:04:12;3.40;99.90
39899;DHT22;25571;47.876;10.642;2023-04-03T05:06:39;3.40;99.90
39899;DHT22;25571;47.876;10.642;2023-04-03T05:09:04;3.30;99.90
39899;DHT22;25571;47.876;10.642;2023-04-03T05:11:30;3.30;99.90
39899;DHT22;25571;47.876;10.642;2023-04-03T05:13:56;3.40;99.90
39899;DHT22;25571;47.876;10.642;2023-04-03T05:16:21;3.40;99.90
39899;DHT22;25571;47.876;10.642;2023-04-03T05:18:47;3.40;99.90
39899;DHT22;25571;47.876;10.642;2023-04-03T05:21:13;3.40;99.90
39899;DHT22;25571;47.876;10.642;2023-04-03T05:23:38;3.40;99.90
39899;DHT22;25571;47.876;10.642;2023-04-03T05:26:04;3.20;99.90
39899;DHT22;25571;47.876;10.642;2023-04-03T05:28:30;3.30;99.90
39899;DHT22;25571;47.876;10.642;2023-04-03T05:30:59;3.40;99.90
39899;DHT22;25571;47.876;10.642;2023-04-03T05:33:25;3.20;99.90
39899;DHT22;25571;47.876;10.642;2023-04-03T05:35:52;3.20;99.90
39899;DHT22;25571;47.876;10.642;2023-04-03T05:38:17;3.10;99.90
39899;DHT22;25571;47.876;10.642;2023-04-03T05:40:43;3.00;99.90
39899;DHT22;25571;47.876;10.642;2023-04-03T05:43:09;2.90;99.90
39899;DHT22;25571;47.876;10.642;2023-04-03T05:45:35;2.90;99.90
39899;DHT22;25571;47.876;10.642;2023-04-03T05:48:00;3.00;99.90
39899;DHT22;25571;47.876;10.642;2023-04-03T05:50:26;3.10;99.90
39899;DHT22;25571;47.876;10.642;2023-04-03T05:52:53;3.20;99.90
39899;DHT22;25571;47.876;10.642;2023-04-03T05:55:20;3.10;99.90
39899;DHT22;25571;47.876;10.642;2023-04-03T05:57:46;3.00;99.90
39899;DHT22;25571;47.876;10.642;2023-04-03T06:00:15;3.10;99.90
39899;DHT22;25571;47.876;10.642;2023-04-03T06:02:42;2.90;99.90
39899;DHT22;25571;47.876;10.642;2023-04-03T06:05:08;3.10;99.90
39899;DHT22;25571;47.876;10.642;2023-04-03T06:07:35;3.00;99.90
39899;DHT22;25571;47.876;10.642;2023-04-03T06:10:01;3.00;99.90
39899;DHT22;25571;47.876;10.642;2023-04-03T06:12:27;3.10;99.90
39899;DHT22;25571;47.876;10.642;2023-04-03T06:14:55;3.20;99.90
39899;DHT22;25571;47.876;10.642;2023-04-03T06:17:20;3.10;99.90
39899;DHT22;25571;47.876;10.642;2023-04-03T06:19:46;2.90;99.90
39899;DHT22;25571;47.876;10.642;2023-04-03T06:22:12;2.90;99.90
39899;DHT22;25571;47.876;10.642;2023-04-03T06:24:38;3.00;99.90
39899;DHT22;25571;47.876;10.642;2023-04-03T06:27:04;2.80;99.90
39899;DHT22;25571;47.876;10.642;2023-04-03T06:29:30;2.90;99.90
39899;DHT22;25571;47.876;10.642;2023-04-03T06:31:56;2.90;99.90
39899;DHT22;25571;47.876;10.642;2023-04-03T06:34:21;2.90;99.90
39899;DHT22;25571;47.876;10.642;2023-04-03T06:36:47;2.80;99.90
39899;DHT22;25571;47.876;10.642;2023-04-03T06:39:16;2.80;99.90
39899;DHT22;25571;47.876;10.642;2023-04-03T06:41:43;2.80;99.90
39899;DHT22;25571;47.876;10.642;2023-04-03T06:44:08;2.90;99.90
39899;DHT22;25571;47.876;10.642;2023-04-03T06:46:37;3.00;99.90
39899;DHT22;25571;47.876;10.642;2023-04-03T06:49:03;2.90;99.90
39899;DHT22;25571;47.876;10.642;2023-04-03T06:51:30;2.80;99.90
39899;DHT22;25571;47.876;10.642;2023-04-03T06:53:57;3.10;99.90
39899;DHT22;25571;47.876;10.642;2023-04-03T06:56:24;3.30;99.90
39899;DHT22;25571;47.876;10.642;2023-04-03T06:58:51;3.40;99.90
39899;DHT22;25571;47.876;10.642;2023-04-03T07:01:18;3.50;99.90
39899;DHT22;25571;47.876;10.642;2023-04-03T07:03:44;3.50;99.90
39899;DHT22;25571;47.876;10.642;2023-04-03T07:06:12;3.60;99.90
39899;DHT22;25571;47.876;10.642;2023-04-03T07:08:38;3.60;99.90
39899;DHT22;25571;47.876;10.642;2023-04-03T07:11:05;3.60;99.90
39899;DHT22;25571;47.876;10.642;2023-04-03T07:13:31;3.60;99.90
39899;DHT22;25571;47.876;10.642;2023-04-03T07:15:58;3.70;99.90
39899;DHT22;25571;47.876;10.642;2023-04-03T07:18:23;3.70;99.90
39899;DHT22;25571;47.876;10.642;2023-04-03T07:20:49;3.70;99.90
39899;DHT22;25571;47.876;10.642;2023-04-03T07:23:15;3.80;99.90
39899;DHT22;25571;47.876;10.642;2023-04-03T07:25:48;3.80;99.90
39899;DHT22;25571;47.876;10.642;2023-04-03T07:28:16;3.70;99.90
39899;DHT22;25571;47.876;10.642;2023-04-03T07:30:43;3.60;99.90
39899;DHT22;25571;47.876;10.642;2023-04-03T07:33:08;3.80;99.90
39899;DHT22;25571;47.876;10.642;2023-04-03T07:35:34;3.70;99.90
39899;DHT22;25571;47.876;10.642;2023-04-03T07:38:00;3.80;99.90
39899;DHT22;25571;47.876;10.642;2023-04-03T07:40:26;3.70;99.90
39899;DHT22;25571;47.876;10.642;2023-04-03T07:42:52;3.90;99.90
39899;DHT22;25571;47.876;10.642;2023-04-03T07:45:17;3.90;99.90
39899;DHT22;25571;47.876;10.642;2023-04-03T07:47:44;4.00;99.90
39899;DHT22;25571;47.876;10.642;2023-04-03T07:50:10;4.00;99.90
39899;DHT22;25571;47.876;10.642;2023-04-03T07:52:36;3.90;99.90
39899;DHT22;25571;47.876;10.642;2023-04-03T07:55:01;4.00;99.90
39899;DHT22;25571;47.876;10.642;2023-04-03T07:57:27;3.90;99.90
39899;DHT22;25571;47.876;10.642;2023-04-03T07:59:52;4.10;99.90
39899;DHT22;25571;47.876;10.642;2023-04-03T08:02:18;4.20;99.90
39899;DHT22;25571;47.876;10.642;2023-04-03T08:04:44;4.10;99.90
39899;DHT22;25571;47.876;10.642;2023-04-03T08:07:09;4.20;99.90
39899;DHT22;25571;47.876;10.642;2023-04-03T08:09:35;4.30;99.90
39899;DHT22;25571;47.876;10.642;2023-04-03T08:12:00;4.40;99.90
39899;DHT22;25571;47.876;10.642;2023-04-03T08:14:26;4.30;99.90
39899;DHT22;25571;47.876;10.642;2023-04-03T08:16:52;4.30;99.90
39899;DHT22;25571;47.876;10.642;2023-04-03T08:19:17;4.30;99.90
39899;DHT22;25571;47.876;10.642;2023-04-03T08:21:44;4.50;99.90
39899;DHT22;25571;47.876;10.642;2023-04-03T08:24:10;4.70;99.90
39899;DHT22;25571;47.876;10.642;2023-04-03T08:26:36;4.60;99.90
39899;DHT22;25571;47.876;10.642;2023-04-03T08:29:02;4.60;99.90
39899;DHT22;25571;47.876;10.642;2023-04-03T08:31:27;4.70;99.90
39899;DHT22;25571;47.876;10.642;2023-04-03T08:33:54;4.40;99.90
39899;DHT22;25571;47.876;10.642;2023-04-03T08:38:47;4.80;99.90
39899;DHT22;25571;47.876;10.642;2023-04-03T08:41:33;4.90;99.90
39899;DHT22;25571;47.876;10.642;2023-04-03T08:44:37;5.20;99.90
39899;DHT22;25571;47.876;10.642;2023-04-03T08:50:06;5.00;99.90
39899;DHT22;25571;47.876;10.642;2023-04-03T08:52:47;4.90;99.90
39899;DHT22;25571;47.876;10.642;2023-04-03T08:55:37;5.00;99.90
39899;DHT22;25571;47.876;10.642;2023-04-03T08:58:15;5.20;99.90
39899;DHT22;25571;47.876;10.642;2023-04-03T09:01:05;6.40;99.90
39899;DHT22;25571;47.876;10.642;2023-04-03T09:03:40;6.30;99.90
39899;DHT22;25571;47.876;10.642;2023-04-03T09:06:25;6.10;99.90
39899;DHT22;25571;47.876;10.642;2023-04-03T09:14:45;5.70;99.90
39899;DHT22;25571;47.876;10.642;2023-04-03T09:22:41;5.90;99.90
39899;DHT22;25571;47.876;10.642;2023-04-03T09:25:17;5.90;99.90
39899;DHT22;25571;47.876;10.642;2023-04-03T09:27:44;6.10;99.90
39899;DHT22;25571;47.876;10.642;2023-04-03T09:30:15;5.90;99.90
39899;DHT22;25571;47.876;10.642;2023-04-03T09:32:44;6.30;99.90
39899;DHT22;25571;47.876;10.642;2023-04-03T09:37:40;6.50;99.90
39899;DHT22;25571;47.876;10.642;2023-04-03T09:40:31;6.50;99.90
39899;DHT22;25571;47.876;10.642;2023-04-03T09:43:22;6.50;99.90
39899;DHT22;25571;47.876;10.642;2023-04-03T09:45:49;6.30;99.90
39899;DHT22;25571;47.876;10.642;2023-04-03T09:48:24;6.40;99.90
39899;DHT22;25571;47.876;10.642;2023-04-03T09:53:39;7.20;99.90
39899;DHT22;25571;47.876;10.642;2023-04-03T09:59:08;6.90;99.90
39899;DHT22;25571;47.876;10.642;2023-04-03T10:01:39;6.80;99.90
39899;DHT22;25571;47.876;10.642;2023-04-03T10:06:39;6.60;99.90
39899;DHT22;25571;47.876;10.642;2023-04-03T10:09:24;6.30;99.90
39899;DHT22;25571;47.876;10.642;2023-04-03T10:12:08;6.80;99.90
39899;DHT22;25571;47.876;10.642;2023-04-03T10:14:53;6.70;99.90
39899;DHT22;25571;47.876;10.642;2023-04-03T10:19:58;7.10;99.90
39899;DHT22;25571;47.876;10.642;2023-04-03T10:23:31;7.10;99.60
39899;DHT22;25571;47.876;10.642;2023-04-03T10:31:08;5.90;99.90
39899;DHT22;25571;47.876;10.642;2023-04-03T10:34:05;5.80;99.90
39899;DHT22;25571;47.876;10.642;2023-04-03T10:47:42;7.10;99.60
39899;DHT22;25571;47.876;10.642;2023-04-03T10:55:55;7.30;98.80
39899;DHT22;25571;47.876;10.642;2023-04-03T10:58:45;7.60;98.70
39899;DHT22;25571;47.876;10.642;2023-04-03T11:01:16;7.30;98.90
39899;DHT22;25571;47.876;10.642;2023-04-03T11:03:50;7.20;98.00
39899;DHT22;25571;47.876;10.642;2023-04-03T11:06:20;6.70;98.40
39899;DHT22;25571;47.876;10.642;2023-04-03T11:09:00;6.60;99.80
39899;DHT22;25571;47.876;10.642;2023-04-03T11:11:37;6.50;99.90
39899;DHT22;25571;47.876;10.642;2023-04-03T11:14:28;6.30;99.50
39899;DHT22;25571;47.876;10.642;2023-04-03T11:17:04;6.30;99.50
39899;DHT22;25571;47.876;10.642;2023-04-03T11:19:34;6.20;99.90
39899;DHT22;25571;47.876;10.642;2023-04-03T11:22:27;6.10;99.50
39899;DHT22;25571;47.876;10.642;2023-04-03T11:27:43;6.00;99.90
39899;DHT22;25571;47.876;10.642;2023-04-03T11:30:25;6.10;99.90
39899;DHT22;25571;47.876;10.642;2023-04-03T11:35:52;6.10;99.50
39899;DHT22;25571;47.876;10.642;2023-04-03T11:38:28;6.30;99.60
39899;DHT22;25571;47.876;10.642;2023-04-03T11:40:57;6.50;99.80
39899;DHT22;25571;47.876;10.642;2023-04-03T11:45:54;6.80;98.10
39899;DHT22;25571;47.876;10.642;2023-04-03T11:53:43;6.30;98.70
39899;DHT22;25571;47.876;10.642;2023-04-03T12:04:12;5.80;99.70
39899;DHT22;25571;47.876;10.642;2023-04-03T12:09:32;6.00;99.50
39899;DHT22;25571;47.876;10.642;2023-04-03T12:12:00;6.00;99.30
39899;DHT22;25571;47.876;10.642;2023-04-03T12:14:28;6.10;99.00
39899;DHT22;25571;47.876;10.642;2023-04-03T12:16:54;6.10;98.50
39899;DHT22;25571;47.876;10.642;2023-04-03T12:19:38;6.20;98.60
39899;DHT22;25571;47.876;10.642;2023-04-03T12:22:14;6.30;98.40
39899;DHT22;25571;47.876;10.642;2023-04-03T12:24:51;6.40;98.20
39899;DHT22;25571;47.876;10.642;2023-04-03T12:30:05;6.20;97.80
39899;DHT22;25571;47.876;10.642;2023-04-03T12:32:54;6.30;97.90
39899;DHT22;25571;47.876;10.642;2023-04-03T12:35:43;6.20;97.60
39899;DHT22;25571;47.876;10.642;2023-04-03T12:46:43;5.90;98.50
39899;DHT22;25571;47.876;10.642;2023-04-03T12:49:28;5.80;98.60
39899;DHT22;25571;47.876;10.642;2023-04-03T12:51:56;5.90;98.90
39899;DHT22;25571;47.876;10.642;2023-04-03T12:54:38;5.90;98.70
39899;DHT22;25571;47.876;10.642;2023-04-03T12:57:26;5.90;98.50
39899;DHT22;25571;47.876;10.642;2023-04-03T12:59:53;5.80;98.20
39899;DHT22;25571;47.876;10.642;2023-04-03T13:02:30;5.80;98.30
39899;DHT22;25571;47.876;10.642;2023-04-03T13:04:58;5.70;98.00
39899;DHT22;25571;47.876;10.642;2023-04-03T13:07:30;5.70;98.50
39899;DHT22;25571;47.876;10.642;2023-04-03T13:15:30;6.00;98.60
39899;DHT22;25571;47.876;10.642;2023-04-03T13:18:05;6.10;97.60
39899;DHT22;25571;47.876;10.642;2023-04-03T13:20:34;6.20;97.90
39899;DHT22;25571;47.876;10.642;2023-04-03T13:23:08;6.30;97.90
39899;DHT22;25571;47.876;10.642;2023-04-03T13:25:43;6.30;97.20
39899;DHT22;25571;47.876;10.642;2023-04-03T13:28:15;6.30;96.90
39899;DHT22;25571;47.876;10.642;2023-04-03T13:33:26;6.30;97.20
39899;DHT22;25571;47.876;10.642;2023-04-03T13:36:29;6.20;97.30
39899;DHT22;25571;47.876;10.642;2023-04-03T13:39:28;6.20;96.90
39899;DHT22;25571;47.876;10.642;2023-04-03T13:41:55;6.40;97.10
39899;DHT22;25571;47.876;10.642;2023-04-03T13:46:54;6.50;96.60
39899;DHT22;25571;47.876;10.642;2023-04-03T13:49:22;6.40;96.50
39899;DHT22;25571;47.876;10.642;2023-04-03T13:51:53;6.40;97.10
39899;DHT22;25571;47.876;10.642;2023-04-03T13:56:57;6.40;95.60
39899;DHT22;25571;47.876;10.642;2023-04-03T13:59:34;6.30;96.30
39899;DHT22;25571;47.876;10.642;2023-04-03T14:04:53;6.30;96.90
39899;DHT22;25571;47.876;10.642;2023-04-03T14:07:23;6.00;96.70
39899;DHT22;25571;47.876;10.642;2023-04-03T14:09:49;6.10;97.60
39899;DHT22;25571;47.876;10.642;2023-04-03T14:12:18;6.10;98.00
39899;DHT22;25571;47.876;10.642;2023-04-03T14:14:46;6.00;98.30
39899;DHT22;25571;47.876;10.642;2023-04-03T14:17:21;6.20;98.20
39899;DHT22;25571;47.876;10.642;2023-04-03T14:19:48;6.30;98.40
39899;DHT22;25571;47.876;10.642;2023-04-03T14:22:21;6.30;98.00
39899;DHT22;25571;47.876;10.642;2023-04-03T14:24:48;6.30;98.20
39899;DHT22;25571;47.876;10.642;2023-04-03T14:27:40;6.20;98.30
39899;DHT22;25571;47.876;10.642;2023-04-03T14:30:09;6.30;98.30
39899;DHT22;25571;47.876;10.642;2023-04-03T14:32:37;6.30;97.80
39899;DHT22;25571;47.876;10.642;2023-04-03T14:35:03;6.50;97.60
39899;DHT22;25571;47.876;10.642;2023-04-03T14:37:30;6.60;97.00
39899;DHT22;25571;47.876;10.642;2023-04-03T14:39:58;6.40;95.50
39899;DHT22;25571;47.876;10.642;2023-04-03T14:42:27;6.50;95.60
39899;DHT22;25571;47.876;10.642;2023-04-03T14:44:54;6.40;95.70
39899;DHT22;25571;47.876;10.642;2023-04-03T14:47:22;6.50;95.80
39899;DHT22;25571;47.876;10.642;2023-04-03T14:49:49;6.50;95.10
39899;DHT22;25571;47.876;10.642;2023-04-03T14:52:27;6.40;95.10
39899;DHT22;25571;47.876;10.642;2023-04-03T14:54:54;6.40;95.20
39899;DHT22;25571;47.876;10.642;2023-04-03T14:57:23;6.60;95.60
39899;DHT22;25571;47.876;10.642;2023-04-03T14:59:49;6.60;95.70
39899;DHT22;25571;47.876;10.642;2023-04-03T15:02:31;6.50;94.80
39899;DHT22;25571;47.876;10.642;2023-04-03T15:04:58;6.40;96.20
39899;DHT22;25571;47.876;10.642;2023-04-03T15:07:26;6.20;95.50
39899;DHT22;25571;47.876;10.642;2023-04-03T15:09:52;6.20;95.90
39899;DHT22;25571;47.876;10.642;2023-04-03T15:12:18;6.30;95.80
39899;DHT22;25571;47.876;10.642;2023-04-03T15:14:44;6.30;95.10
39899;DHT22;25571;47.876;10.642;2023-04-03T15:17:17;6.30;95.80
39899;DHT22;25571;47.876;10.642;2023-04-03T15:19:45;6.50;95.30
39899;DHT22;25571;47.876;10.642;2023-04-03T15:22:19;6.50;95.00
39899;DHT22;25571;47.876;10.642;2023-04-03T15:24:45;6.40;94.70
39899;DHT22;25571;47.876;10.642;2023-04-03T15:27:11;6.40;94.40
39899;DHT22;25571;47.876;10.642;2023-04-03T15:29:39;6.10;94.10
39899;DHT22;25571;47.876;10.642;2023-04-03T15:32:06;6.10;94.00
39899;DHT22;25571;47.876;10.642;2023-04-03T15:34:32;6.10;94.30
39899;DHT22;25571;47.876;10.642;2023-04-03T15:36:58;6.10;94.00
39899;DHT22;25571;47.876;10.642;2023-04-03T15:39:25;5.80;93.50
39899;DHT22;25571;47.876;10.642;2023-04-03T15:41:51;5.80;94.80
39899;DHT22;25571;47.876;10.642;2023-04-03T15:44:17;5.90;94.40
39899;DHT22;25571;47.876;10.642;2023-04-03T15:46:44;5.90;94.10
39899;DHT22;25571;47.876;10.642;2023-04-03T15:49:11;5.90;93.70
39899;DHT22;25571;47.876;10.642;2023-04-03T15:51:37;6.00;93.30
39899;DHT22;25571;47.876;10.642;2023-04-03T15:54:02;5.70;92.80
39899;DHT22;25571;47.876;10.642;2023-04-03T15:56:28;5.70;92.80
39899;DHT22;25571;47.876;10.642;2023-04-03T15:58:53;5.60;92.80
39899;DHT22;25571;47.876;10.642;2023-04-03T16:01:19;5.70;93.70
39899;DHT22;25571;47.876;10.642;2023-04-03T16:03:45;5.70;93.50
39899;DHT22;25571;47.876;10.642;2023-04-03T16:06:14;5.60;93.30
39899;DHT22;25571;47.876;10.642;2023-04-03T16:08:41;5.60;93.30
39899;DHT22;25571;47.876;10.642;2023-04-03T16:11:07;5.50;93.90
39899;DHT22;25571;47.876;10.642;2023-04-03T16:13:32;5.50;94.20
39899;DHT22;25571;47.876;10.642;2023-04-03T16:15:59;5.50;93.60
39899;DHT22;25571;47.876;10.642;2023-04-03T16:18:26;5.60;93.30
39899;DHT22;25571;47.876;10.642;2023-04-03T16:20:51;5.50;93.50
39899;DHT22;25571;47.876;10.642;2023-04-03T16:23:17;5.40;92.90
39899;DHT22;25571;47.876;10.642;2023-04-03T16:25:43;5.50;93.70
39899;DHT22;25571;47.876;10.642;2023-04-03T16:28:12;5.50;93.50
39899;DHT22;25571;47.876;10.642;2023-04-03T16:30:42;5.50;93.00
39899;DHT22;25571;47.876;10.642;2023-04-03T16:33:09;5.40;93.10
39899;DHT22;25571;47.876;10.642;2023-04-03T16:35:35;5.40;92.90
39899;DHT22;25571;47.876;10.642;2023-04-03T16:38:00;5.30;92.50
39899;DHT22;25571;47.876;10.642;2023-04-03T16:40:26;5.40;93.50
39899;DHT22;25571;47.876;10.642;2023-04-03T16:42:52;5.50;93.30
39899;DHT22;25571;47.876;10.642;2023-04-03T16:45:17;5.50;93.70
39899;DHT22;25571;47.876;10.642;2023-04-03T16:47:43;5.40;93.60
39899;DHT22;25571;47.876;10.642;2023-04-03T16:50:09;5.50;93.60
39899;DHT22;25571;47.876;10.642;2023-04-03T16:52:34;5.50;93.40
39899;DHT22;25571;47.876;10.642;2023-04-03T16:55:00;5.50;93.10
39899;DHT22;25571;47.876;10.642;2023-04-03T16:57:26;5.60;93.00
39899;DHT22;25571;47.876;10.642;2023-04-03T16:59:52;5.50;93.10
39899;DHT22;25571;47.876;10.642;2023-04-03T17:02:19;5.50;92.80
39899;DHT22;25571;47.876;10.642;2023-04-03T17:04:45;5.30;92.80
39899;DHT22;25571;47.876;10.642;2023-04-03T17:07:11;5.40;93.30
39899;DHT22;25571;47.876;10.642;2023-04-03T17:09:36;5.40;93.40
39899;DHT22;25571;47.876;10.642;2023-04-03T17:12:03;5.40;93.40
39899;DHT22;25571;47.876;10.642;2023-04-03T17:14:29;5.40;93.30
39899;DHT22;25571;47.876;10.642;2023-04-03T17:16:55;5.50;93.60
39899;DHT22;25571;47.876;10.642;2023-04-03T17:19:21;5.50;93.70
39899;DHT22;25571;47.876;10.642;2023-04-03T17:21:48;5.40;93.10
39899;DHT22;25571;47.876;10.642;2023-04-03T17:24:14;5.40;93.40
39899;DHT22;25571;47.876;10.642;2023-04-03T17:26:42;5.30;93.50
39899;DHT22;25571;47.876;10.642;2023-04-03T17:29:08;5.30;93.90
39899;DHT22;25571;47.876;10.642;2023-04-03T17:31:34;5.20;93.60